Time;durP1;ratioP1;P1;durP2;ratioP2;P2;SDS_P1;SDS_P2;PMS_P1;PMS_P2;Temp;Humidity;BMP_temperature;BMP_pressure;BME280_temperature;BME280_humidity;BME280_pressure;Samples;Min_cycle;Max_cycle;Signal;HPM_P1;HPM_P2
2024/01/31 00:00:09;;;;;;;6.70;1.00;;;;;;;-146.27;91.70;41955.59;5062256;28;20055;-71
2024/01/31 00:02:36;;;;;;;3.85;0.90;;;;;;;-146.27;90.96;41915.84;5061742;28;20024;-70
2024/01/31 00:05:01;;;;;;;2.72;1.02;;;;;;;-146.27;90.54;41931.75;5066007;28;20016;-69
2024/01/31 00:07:26;;;;;;;4.72;1.20;;;;;;;-146.27;90.54;41915.84;5067784;28;20033;-70
2024/01/31 00:09:52;;;;;;;8.27;1.20;;;;;;;-146.27;90.04;41949.63;5067822;28;20105;-70
2024/01/31 00:12:17;;;;;;;7.55;1.35;;;;;;;-146.27;89.93;41939.69;5066393;28;20020;-70
2024/01/31 00:14:44;;;;;;;5.50;1.13;;;;;;;-146.27;89.78;41963.56;5063600;28;20029;-68
2024/01/31 00:17:09;;;;;;;11.70;1.52;;;;;;;-146.27;89.89;41987.41;5051521;28;20052;-71
2024/01/31 00:19:34;;;;;;;7.03;1.10;;;;;;;-146.27;89.80;41983.44;5067605;28;20062;-70
2024/01/31 00:22:00;;;;;;;10.10;1.85;;;;;;;-146.27;89.50;41943.66;5068650;28;20059;-69
2024/01/31 00:24:26;;;;;;;5.78;1.52;;;;;;;-146.27;89.42;41977.47;5062968;28;20021;-68
2024/01/31 00:26:52;;;;;;;9.48;1.13;;;;;;;-146.27;89.28;41989.41;5069381;28;20246;-70
2024/01/31 00:29:17;;;;;;;5.95;0.98;;;;;;;-146.27;89.13;41979.47;5062926;28;20045;-70
2024/01/31 00:31:42;;;;;;;5.40;1.27;;;;;;;-146.27;88.99;42015.25;5068932;28;20066;-70
2024/01/31 00:34:07;;;;;;;7.07;0.95;;;;;;;-146.27;89.31;41991.41;5059768;28;20115;-69
2024/01/31 00:36:33;;;;;;;5.80;1.13;;;;;;;-146.27;89.18;41991.41;5060780;28;20064;-70
2024/01/31 00:38:59;;;;;;;3.97;1.60;;;;;;;-146.27;89.44;41995.38;5062084;28;20051;-70
2024/01/31 00:41:25;;;;;;;7.32;1.23;;;;;;;-146.27;89.45;41983.44;5059670;28;20033;-69
2024/01/31 00:43:51;;;;;;;8.73;1.00;;;;;;;-146.27;89.62;41973.50;5067769;28;20439;-69
2024/01/31 00:46:17;;;;;;;2.83;1.23;;;;;;;-146.27;89.53;41995.38;5057709;28;20024;-70
2024/01/31 00:48:43;;;;;;;2.67;0.57;;;;;;;-146.27;89.72;41965.53;5057900;28;20481;-70
2024/01/31 00:51:12;;;;;;;2.78;0.90;;;;;;;-146.27;89.67;41927.75;5064287;28;20110;-69
2024/01/31 00:53:38;;;;;;;7.68;1.35;;;;;;;-146.27;89.71;41975.50;5069871;28;20024;-69
2024/01/31 00:56:04;;;;;;;5.60;1.10;;;;;;;-146.27;89.45;41969.53;5072376;28;20051;-70
2024/01/31 00:58:29;;;;;;;4.90;1.77;;;;;;;-146.27;89.05;41967.53;5071680;28;20500;-70
2024/01/31 01:00:54;;;;;;;6.68;0.95;;;;;;;-146.27;89.14;41989.41;5070908;28;20032;-71
2024/01/31 01:03:20;;;;;;;11.32;1.10;;;;;;;-146.27;88.95;42007.31;5066211;28;20579;-69
2024/01/31 01:05:45;;;;;;;4.72;1.00;;;;;;;-146.27;88.58;41999.34;5071864;28;20060;-69
2024/01/31 01:08:11;;;;;;;9.68;1.17;;;;;;;-146.27;88.52;42055.03;5068380;28;20463;-70
2024/01/31 01:10:36;;;;;;;8.32;1.13;;;;;;;-146.27;88.70;42047.06;5067122;28;20079;-69
2024/01/31 01:13:02;;;;;;;7.60;0.80;;;;;;;-146.27;88.55;42049.06;5067963;28;20040;-70
2024/01/31 01:15:27;;;;;;;7.68;0.90;;;;;;;-146.27;88.25;42098.78;5072630;28;20031;-71
2024/01/31 01:17:53;;;;;;;4.05;0.95;;;;;;;-146.27;87.92;42059.00;5064598;28;20090;-69
2024/01/31 01:20:18;;;;;;;4.32;1.15;;;;;;;-146.27;87.49;42140.53;5071299;28;20034;-71
2024/01/31 01:22:44;;;;;;;1.73;0.50;;;;;;;-146.27;86.63;42222.06;5066413;28;20025;-68
2024/01/31 01:25:10;;;;;;;8.25;0.77;;;;;;;-146.27;85.59;42269.78;5066963;28;20368;-68
2024/01/31 01:27:35;;;;;;;3.80;0.63;;;;;;;-146.27;83.81;42387.13;5069013;28;20094;-68
2024/01/31 01:30:01;;;;;;;4.22;0.75;;;;;;;-146.27;82.76;42458.72;5063390;28;20055;-70
2024/01/31 01:32:26;;;;;;;0.88;0.50;;;;;;;-146.27;81.65;42576.06;5061719;28;20052;-69
2024/01/31 01:34:51;;;;;;;2.15;0.30;;;;;;;-146.27;81.01;42651.63;5071244;28;20031;-70
2024/01/31 01:37:17;;;;;;;3.92;0.52;;;;;;;-146.27;79.85;42745.09;5068497;28;20040;-69
2024/01/31 01:39:45;;;;;;;0.10;0.10;;;;;;;-146.27;78.39;42886.31;5066513;28;20040;-69
2024/01/31 01:42:11;;;;;;;1.52;0.55;;;;;;;-146.27;78.16;42862.47;5070179;28;20020;-70
2024/01/31 01:44:46;;;;;;;2.58;0.47;;;;;;;-146.27;77.29;42977.81;5068587;28;20078;-70
2024/01/31 01:47:16;;;;;;;0.35;0.35;;;;;;;-146.27;77.23;42985.78;5067021;28;20025;-70
2024/01/31 01:49:43;;;;;;;3.20;0.60;;;;;;;-146.27;76.99;43059.38;5069577;28;20112;-69
2024/01/31 01:52:10;;;;;;;1.48;0.68;;;;;;;-146.27;77.08;43029.53;5065124;28;20472;-70
2024/01/31 01:54:36;;;;;;;1.55;0.38;;;;;;;-146.27;77.22;43015.59;5068724;28;20043;-69
2024/01/31 01:57:02;;;;;;;1.40;0.55;;;;;;;-146.27;76.88;43005.66;5058217;28;20024;-70
2024/01/31 01:59:27;;;;;;;1.38;0.50;;;;;;;-146.27;77.07;43017.59;5067556;28;20023;-72
2024/01/31 02:01:53;;;;;;;1.40;0.70;;;;;;;-146.27;77.12;43039.47;5066537;28;20031;-69
2024/01/31 02:04:21;;;;;;;2.88;1.30;;;;;;;-146.27;77.38;43045.44;5066860;28;20086;-69
2024/01/31 02:06:47;;;;;;;1.23;0.50;;;;;;;-146.27;77.97;42985.78;5070560;28;20027;-69
2024/01/31 02:09:13;;;;;;;5.68;0.85;;;;;;;-146.27;77.63;43005.66;5066084;28;20025;-70
2024/01/31 02:11:38;;;;;;;1.33;0.57;;;;;;;-146.27;77.90;43013.63;5071313;28;20017;-70
2024/01/31 02:14:04;;;;;;;0.98;0.55;;;;;;;-146.27;77.98;43031.53;5071655;28;20028;-70
2024/01/31 02:16:29;;;;;;;2.25;0.55;;;;;;;-146.27;78.74;43009.63;5071268;28;20024;-71
2024/01/31 02:18:54;;;;;;;2.25;0.80;;;;;;;-146.27;79.56;42965.88;5071001;28;20082;-69
2024/01/31 02:21:23;;;;;;;5.28;0.70;;;;;;;-146.27;80.64;42894.28;5069147;28;20108;-69
2024/01/31 02:23:48;;;;;;;1.80;0.65;;;;;;;-146.27;80.02;42914.16;5071645;28;20060;-70
2024/01/31 02:26:14;;;;;;;0.95;0.63;;;;;;;-146.27;79.87;42932.06;5071479;28;20048;-69
2024/01/31 02:28:39;;;;;;;1.88;0.80;;;;;;;-146.27;79.65;42961.91;5071517;28;20095;-69
2024/01/31 02:31:04;;;;;;;4.90;0.88;;;;;;;-146.27;79.30;42965.88;5070847;28;20055;-71
2024/01/31 02:33:30;;;;;;;3.40;0.77;;;;;;;-146.27;79.80;42928.09;5071139;28;20468;-69
2024/01/31 02:35:55;;;;;;;2.22;0.55;;;;;;;-146.27;80.33;42926.09;5069728;28;20409;-69
2024/01/31 02:38:21;;;;;;;1.95;0.70;;;;;;;-146.27;80.34;42902.22;5069872;28;20482;-70
2024/01/31 02:40:46;;;;;;;5.25;0.70;;;;;;;-146.27;80.92;42906.22;5065431;28;20132;-70
2024/01/31 02:43:11;;;;;;;0.98;0.68;;;;;;;-146.27;81.39;42868.41;5069533;28;20108;-70
2024/01/31 02:45:37;;;;;;;1.52;0.60;;;;;;;-146.27;82.03;42806.75;5063951;28;20055;-70
2024/01/31 02:48:03;;;;;;;2.33;0.60;;;;;;;-146.27;81.94;42830.63;5067584;28;20028;-69
2024/01/31 02:50:30;;;;;;;1.75;0.85;;;;;;;-146.27;82.00;42812.72;5065927;28;20501;-69
2024/01/31 02:52:55;;;;;;;2.97;0.75;;;;;;;-146.27;81.90;42832.63;5066001;28;20035;-69
2024/01/31 02:55:21;;;;;;;0.82;0.57;;;;;;;-146.27;82.09;42808.75;5069866;28;20480;-69
2024/01/31 02:57:46;;;;;;;2.53;0.70;;;;;;;-146.27;82.89;42776.94;5060970;28;20481;-69
2024/01/31 03:00:12;;;;;;;4.13;0.80;;;;;;;-146.27;83.71;42731.19;5065365;28;20124;-70
2024/01/31 03:02:40;;;;;;;1.33;0.75;;;;;;;-146.27;83.09;42735.16;5070005;28;20422;-69
2024/01/31 03:05:06;;;;;;;0.50;0.45;;;;;;;-146.27;83.21;42745.09;5066664;28;20151;-69
2024/01/31 03:07:31;;;;;;;3.40;1.15;;;;;;;-146.27;83.43;42705.34;5060957;28;20127;-70
2024/01/31 03:09:56;;;;;;;2.28;0.93;;;;;;;-146.27;83.10;42747.09;5068418;28;20119;-69
2024/01/31 03:12:22;;;;;;;1.30;0.77;;;;;;;-146.27;83.51;42695.38;5068437;28;20032;-69
2024/01/31 03:14:47;;;;;;;1.80;0.88;;;;;;;-146.27;83.81;42699.38;5068124;28;20029;-70
2024/01/31 03:17:12;;;;;;;6.28;0.90;;;;;;;-146.27;83.47;42677.50;5065859;28;20502;-69
2024/01/31 03:19:39;;;;;;;5.88;1.30;;;;;;;-146.27;83.68;42699.38;5070490;28;20021;-69
2024/01/31 03:22:05;;;;;;;4.30;1.35;;;;;;;-146.27;83.59;42705.34;5068731;28;20093;-69
2024/01/31 03:24:31;;;;;;;3.85;1.73;;;;;;;-146.27;83.64;42681.47;5059806;28;20021;-70
2024/01/31 03:26:56;;;;;;;4.63;1.15;;;;;;;-146.27;83.46;42711.31;5063059;28;20059;-69
2024/01/31 03:29:22;;;;;;;6.45;1.38;;;;;;;-146.27;83.58;42691.41;5069056;28;20525;-71
2024/01/31 03:31:47;;;;;;;9.63;1.75;;;;;;;-146.27;83.72;42711.31;5070057;28;20083;-71
2024/01/31 03:34:13;;;;;;;8.52;1.20;;;;;;;-146.27;83.77;42683.47;5065611;28;20035;-69
2024/01/31 03:36:39;;;;;;;1.83;1.20;;;;;;;-146.27;83.77;42683.47;5061249;28;20488;-70
2024/01/31 03:39:04;;;;;;;2.28;1.13;;;;;;;-146.27;83.45;42691.41;5064969;28;20028;-70
2024/01/31 03:41:30;;;;;;;3.05;1.58;;;;;;;-146.27;83.53;42677.50;5065102;28;20024;-69
2024/01/31 03:43:56;;;;;;;1.48;1.25;;;;;;;-146.27;83.88;42687.44;5058375;28;20029;-70
2024/01/31 03:46:21;;;;;;;6.28;1.70;;;;;;;-146.27;84.24;42671.53;5065999;28;20168;-69
2024/01/31 03:48:47;;;;;;;3.97;1.83;;;;;;;-146.27;84.69;42601.91;5066746;28;20028;-69
2024/01/31 03:51:24;;;;;;;4.13;1.60;;;;;;;-146.27;84.31;42633.72;5068604;28;20043;-69
2024/01/31 03:53:50;;;;;;;11.60;2.70;;;;;;;-146.27;84.17;42631.75;5060781;28;20032;-71
2024/01/31 03:56:16;;;;;;;4.18;1.80;;;;;;;-146.27;83.98;42633.72;5060356;28;20447;-70
2024/01/31 03:58:42;;;;;;;4.60;1.67;;;;;;;-146.27;84.17;42645.66;5066926;28;20331;-69
2024/01/31 04:01:08;;;;;;;5.40;2.25;;;;;;;-146.27;84.47;42631.75;5064080;28;20024;-69
2024/01/31 04:03:36;;;;;;;3.40;2.08;;;;;;;-146.27;84.58;42611.84;5064881;28;20112;-69
2024/01/31 04:06:02;;;;;;;2.28;1.55;;;;;;;-146.27;84.67;42611.84;5061470;28;20090;-70
2024/01/31 04:08:27;;;;;;;6.20;2.42;;;;;;;-146.27;84.74;42629.75;5065260;28;20028;-71
2024/01/31 04:10:52;;;;;;;5.68;2.28;;;;;;;-146.27;84.57;42635.72;5065852;28;20040;-70
2024/01/31 04:13:19;;;;;;;3.28;2.35;;;;;;;-146.27;85.01;42582.03;5062573;28;20085;-71
2024/01/31 04:15:45;;;;;;;8.57;2.30;;;;;;;-146.27;84.96;42603.91;5065292;28;20481;-70
2024/01/31 04:18:10;;;;;;;5.88;2.38;;;;;;;-146.27;84.66;42572.09;5066096;28;20134;-69
2024/01/31 04:20:37;;;;;;;10.98;2.60;;;;;;;-146.27;83.93;42599.94;5065389;28;20024;-69
2024/01/31 04:23:03;;;;;;;4.15;2.78;;;;;;;-146.27;83.49;42657.59;5068971;28;20871;-69
2024/01/31 04:25:28;;;;;;;4.50;2.75;;;;;;;-146.27;82.49;42713.28;5068493;28;20086;-70
2024/01/31 04:27:54;;;;;;;6.18;2.65;;;;;;;-146.27;82.19;42715.28;5063229;28;20025;-70
2024/01/31 04:30:19;;;;;;;4.18;2.22;;;;;;;-146.27;81.98;42751.06;5065301;28;20036;-70
2024/01/31 04:32:44;;;;;;;3.95;2.30;;;;;;;-146.27;81.61;42747.09;5064752;28;20154;-71
2024/01/31 04:35:10;;;;;;;3.45;2.40;;;;;;;-146.27;82.06;42755.06;5056751;28;20036;-70
2024/01/31 04:37:36;;;;;;;4.00;2.55;;;;;;;-146.27;81.51;42763.00;5057315;28;20017;-69
2024/01/31 04:40:01;;;;;;;5.40;2.65;;;;;;;-146.27;81.66;42798.81;5068312;28;20078;-71
2024/01/31 04:42:27;;;;;;;8.25;2.60;;;;;;;-146.27;81.15;42774.94;5061734;28;20492;-69
2024/01/31 04:44:52;;;;;;;6.40;2.00;;;;;;;-146.27;80.50;42802.78;5065835;28;20036;-69
2024/01/31 04:47:17;;;;;;;5.63;2.15;;;;;;;-146.27;79.78;42894.28;5058886;28;20055;-70
2024/01/31 04:49:43;;;;;;;3.63;1.95;;;;;;;-146.27;79.63;42906.22;5068042;28;20077;-69
2024/01/31 04:52:09;;;;;;;3.97;2.53;;;;;;;-146.27;79.88;42842.56;5058366;28;20029;-70
2024/01/31 04:54:39;;;;;;;2.92;2.30;;;;;;;-146.27;79.84;42834.59;5056251;28;20036;-70
2024/01/31 04:57:05;;;;;;;4.13;2.00;;;;;;;-146.27;79.46;42918.16;5063689;28;20449;-70
2024/01/31 04:59:30;;;;;;;1.67;1.48;;;;;;;-146.27;79.09;42934.06;5067976;28;20056;-69
2024/01/31 05:01:55;;;;;;;3.00;2.00;;;;;;;-146.27;78.71;42946.00;5056341;28;20472;-69
2024/01/31 05:04:21;;;;;;;4.28;2.17;;;;;;;-146.27;78.26;42938.03;5068164;28;20035;-69
2024/01/31 05:06:49;;;;;;;4.53;2.28;;;;;;;-146.27;77.96;42965.88;5067909;28;20037;-69
2024/01/31 05:09:14;;;;;;;5.45;2.10;;;;;;;-146.27;77.77;43053.41;5060176;28;20020;-70
2024/01/31 05:11:40;;;;;;;2.78;2.08;;;;;;;-146.27;77.69;43009.63;5067399;28;20534;-69
2024/01/31 05:14:05;;;;;;;5.85;2.50;;;;;;;-146.27;77.64;43021.56;5062743;28;20802;-69
2024/01/31 05:16:30;;;;;;;3.28;2.00;;;;;;;-146.27;77.22;43045.44;5065487;28;20055;-69
2024/01/31 05:18:55;;;;;;;3.50;2.50;;;;;;;-146.27;76.60;43091.19;5059748;28;20032;-69
2024/01/31 05:21:21;;;;;;;2.95;1.85;;;;;;;-146.27;76.88;43041.47;5058968;28;20033;-69
2024/01/31 05:23:46;;;;;;;4.00;1.90;;;;;;;-146.27;76.95;43039.47;5058359;28;20052;-70
2024/01/31 05:26:11;;;;;;;4.45;2.67;;;;;;;-146.27;76.44;43077.28;5059117;28;20036;-70
2024/01/31 05:28:37;;;;;;;4.70;2.10;;;;;;;-146.27;75.76;43113.06;5063834;28;20032;-70
2024/01/31 05:31:03;;;;;;;2.80;2.40;;;;;;;-146.27;75.21;43152.84;5059172;28;20578;-70
2024/01/31 05:33:29;;;;;;;5.93;2.28;;;;;;;-146.27;75.32;43125.00;5065775;28;20031;-69
2024/01/31 05:35:56;;;;;;;4.93;2.88;;;;;;;-146.27;76.08;43136.94;5067291;28;20400;-70
2024/01/31 05:38:21;;;;;;;5.13;2.40;;;;;;;-146.27;76.09;43146.88;5067072;28;20020;-70
2024/01/31 05:40:46;;;;;;;3.20;2.50;;;;;;;-146.27;76.36;43107.09;5071420;28;20021;-69
2024/01/31 05:43:12;;;;;;;4.38;2.90;;;;;;;-146.27;77.22;43117.06;5071351;28;20403;-70
2024/01/31 05:45:37;;;;;;;5.43;3.25;;;;;;;-146.27;77.43;43138.94;5068753;28;20457;-70
2024/01/31 05:48:03;;;;;;;4.38;2.65;;;;;;;-146.27;77.76;43117.06;5071877;28;20083;-71
2024/01/31 05:50:29;;;;;;;4.82;2.92;;;;;;;-146.27;77.66;43055.38;5062834;28;20111;-69
2024/01/31 05:52:54;;;;;;;6.78;3.40;;;;;;;-146.27;78.02;43035.50;5072177;28;20151;-69
2024/01/31 05:55:20;;;;;;;3.72;3.28;;;;;;;-146.27;78.28;43075.28;5071842;28;20105;-68
2024/01/31 05:57:49;;;;;;;6.30;3.00;;;;;;;-146.27;77.96;43113.06;5072483;28;20155;-70
2024/01/31 06:00:15;;;;;;;3.92;2.75;;;;;;;-146.27;78.11;43083.22;5068557;28;20025;-70
2024/01/31 06:02:40;;;;;;;4.38;3.00;;;;;;;-146.27;77.97;43081.25;5070288;28;20484;-70
2024/01/31 06:05:06;;;;;;;5.32;2.90;;;;;;;-146.27;77.72;43045.44;5071407;28;20034;-71
2024/01/31 06:07:32;;;;;;;5.80;3.00;;;;;;;-146.27;78.00;43156.84;5069058;28;20115;-71
2024/01/31 06:09:57;;;;;;;3.53;2.72;;;;;;;-146.27;77.47;43111.09;5070193;28;20021;-70
2024/01/31 06:12:22;;;;;;;5.10;2.90;;;;;;;-146.27;77.41;43063.34;5069436;28;20055;-70
2024/01/31 06:14:48;;;;;;;4.53;2.97;;;;;;;-146.27;77.45;43089.19;5066213;28;20036;-69
2024/01/31 06:17:14;;;;;;;3.65;2.10;;;;;;;-146.27;76.07;43190.66;5065017;28;20070;-69
2024/01/31 06:19:40;;;;;;;7.22;2.95;;;;;;;-146.27;76.12;43140.91;5068926;28;20028;-71
2024/01/31 06:22:06;;;;;;;8.40;2.97;;;;;;;-146.27;76.08;43132.97;5070160;28;20032;-70
2024/01/31 06:24:31;;;;;;;3.97;2.45;;;;;;;-146.27;76.36;43164.78;5071912;28;20274;-70
2024/01/31 06:26:56;;;;;;;3.83;2.67;;;;;;;-146.27;76.58;43160.81;5071240;28;20027;-69
2024/01/31 06:29:22;;;;;;;3.60;2.50;;;;;;;-146.27;75.97;43140.91;5058140;28;20037;-69
2024/01/31 06:31:48;;;;;;;4.18;2.85;;;;;;;-146.27;76.44;43148.88;5063156;28;20060;-69
2024/01/31 06:34:16;;;;;;;5.63;2.70;;;;;;;-146.27;75.96;43128.97;5053238;28;20024;-70
2024/01/31 06:36:42;;;;;;;5.65;2.95;;;;;;;-146.27;76.09;43113.06;5068786;28;20435;-72
2024/01/31 06:39:09;;;;;;;7.25;2.92;;;;;;;-146.27;76.05;43125.00;5070062;28;20429;-71
2024/01/31 06:41:36;;;;;;;3.70;2.53;;;;;;;-146.27;76.21;43117.06;5068122;28;20025;-70
2024/01/31 06:44:01;;;;;;;6.32;2.80;;;;;;;-146.27;76.54;43101.13;5061342;28;20017;-70
2024/01/31 06:46:27;;;;;;;7.40;3.00;;;;;;;-146.27;76.97;43093.19;5065242;28;20025;-71
2024/01/31 06:48:52;;;;;;;4.80;3.05;;;;;;;-146.27;77.18;43073.28;5066494;28;20016;-69
2024/01/31 06:51:17;;;;;;;4.10;2.70;;;;;;;-146.27;77.55;43049.41;5069656;28;20531;-69
2024/01/31 06:53:44;;;;;;;4.25;2.83;;;;;;;-146.27;77.40;43035.50;5065296;28;20167;-69
2024/01/31 06:56:16;;;;;;;5.43;2.63;;;;;;;-146.27;77.70;43067.31;5066112;28;20400;-69
2024/01/31 06:58:43;;;;;;;5.55;2.40;;;;;;;-146.27;77.34;43069.31;5072541;28;20039;-70
2024/01/31 07:01:08;;;;;;;4.30;2.75;;;;;;;-146.27;77.16;43081.25;5067746;28;20512;-70
2024/01/31 07:03:33;;;;;;;7.57;2.63;;;;;;;-146.27;77.29;43125.00;5067811;28;20031;-69
2024/01/31 07:05:59;;;;;;;4.45;2.30;;;;;;;-146.27;76.77;43113.06;5068803;28;20028;-70
2024/01/31 07:08:24;;;;;;;7.50;2.85;;;;;;;-146.27;76.21;43107.09;5062412;28;20024;-70
2024/01/31 07:10:49;;;;;;;2.80;2.50;;;;;;;-146.27;76.66;43127.00;5062215;28;20044;-70
2024/01/31 07:13:15;;;;;;;3.90;2.25;;;;;;;-146.27;76.41;43113.06;5063553;28;20042;-69
2024/01/31 07:15:40;;;;;;;4.57;2.22;;;;;;;-146.27;76.68;43132.97;5061398;28;20036;-70
2024/01/31 07:18:06;;;;;;;2.75;2.03;;;;;;;-146.27;76.14;43132.97;5059994;28;20016;-70
2024/01/31 07:20:31;;;;;;;2.45;2.00;;;;;;;-146.27;76.00;43172.75;5059862;28;20032;-69
2024/01/31 07:22:57;;;;;;;3.65;2.17;;;;;;;-146.27;76.08;43166.78;5067203;28;20021;-70
2024/01/31 07:25:22;;;;;;;4.93;2.25;;;;;;;-146.27;76.07;43121.03;5070137;28;20035;-69
2024/01/31 07:27:48;;;;;;;5.20;2.17;;;;;;;-146.27;77.21;43178.72;5069107;28;20025;-69
2024/01/31 07:30:13;;;;;;;6.32;2.17;;;;;;;-146.27;76.64;43111.09;5069283;28;20057;-77
2024/01/31 07:32:39;;;;;;;6.18;2.63;;;;;;;-146.27;76.72;43093.19;5068308;28;20020;-70
2024/01/31 07:35:07;;;;;;;7.28;2.28;;;;;;;-146.27;76.90;43081.25;5069571;28;20093;-70
2024/01/31 07:37:33;;;;;;;3.70;1.95;;;;;;;-146.27;77.67;43113.06;5067921;28;20029;-71
2024/01/31 07:39:59;;;;;;;6.25;2.33;;;;;;;-146.27;77.51;43065.34;5070449;28;20051;-71
2024/01/31 07:42:24;;;;;;;2.65;2.00;;;;;;;-146.27;78.03;43087.22;5069103;28;20138;-71
2024/01/31 07:44:50;;;;;;;6.75;2.10;;;;;;;-146.27;78.14;43057.38;5067907;28;20025;-71
2024/01/31 07:47:15;;;;;;;5.43;2.05;;;;;;;-146.27;78.10;43057.38;5066614;28;20456;-71
2024/01/31 07:49:41;;;;;;;2.78;1.80;;;;;;;-146.27;77.93;43045.44;5067613;28;20032;-71
2024/01/31 07:52:06;;;;;;;7.35;2.63;;;;;;;-146.27;79.07;43083.22;5066661;28;20071;-70
2024/01/31 07:54:32;;;;;;;4.40;1.73;;;;;;;-146.27;78.48;43045.44;5069673;28;20056;-71
2024/01/31 07:56:57;;;;;;;3.80;2.20;;;;;;;-146.27;78.69;43049.41;5070574;28;20537;-69
2024/01/31 07:59:22;;;;;;;3.05;1.80;;;;;;;-146.27;78.55;43045.44;5068990;28;20024;-70
2024/01/31 08:01:48;;;;;;;4.00;1.90;;;;;;;-146.27;79.09;43125.00;5068553;28;20162;-69
2024/01/31 08:04:13;;;;;;;11.80;2.28;;;;;;;-146.27;79.32;43119.03;5069380;28;20036;-70
2024/01/31 08:06:42;;;;;;;3.03;1.90;;;;;;;-146.27;79.31;43180.69;5070722;28;20099;-70
2024/01/31 08:09:10;;;;;;;4.97;2.05;;;;;;;-146.27;78.39;43168.75;5070493;28;20229;-70
2024/01/31 08:11:42;;;;;;;3.40;1.98;;;;;;;-146.27;78.08;43186.66;5055353;28;20029;-70
2024/01/31 08:14:08;;;;;;;5.53;2.63;;;;;;;-146.27;77.48;43156.84;5069966;28;20123;-70
2024/01/31 08:16:36;;;;;;;5.45;1.92;;;;;;;-146.27;77.76;43236.41;5066815;28;20361;-70
2024/01/31 08:19:02;;;;;;;4.22;1.80;;;;;;;-146.27;77.25;43272.19;5069373;28;20035;-72
2024/01/31 08:21:32;;;;;;;3.05;1.60;;;;;;;-146.27;76.93;43238.38;5069404;28;20090;-69
2024/01/31 08:23:58;;;;;;;8.75;2.38;;;;;;;-146.27;76.88;43224.47;5088177;28;20032;-70
2024/01/31 08:26:23;;;;;;;5.35;2.58;;;;;;;-146.27;77.87;43286.13;5075479;28;20167;-69
2024/01/31 08:28:48;;;;;;;4.65;2.47;;;;;;;-146.27;77.84;43313.97;5063727;28;20655;-72
2024/01/31 08:31:14;;;;;;;4.20;2.33;;;;;;;-146.27;77.81;43335.84;5051461;28;20128;-70
2024/01/31 08:33:39;;;;;;;3.40;2.20;;;;;;;-146.27;77.41;43331.88;5068314;28;20607;-71
2024/01/31 08:36:05;;;;;;;5.22;2.60;;;;;;;-146.27;77.89;43421.38;5056305;28;20033;-71
2024/01/31 08:38:30;;;;;;;3.22;2.28;;;;;;;-146.27;77.29;43387.56;5065459;28;20120;-69
2024/01/31 08:40:55;;;;;;;10.77;2.97;;;;;;;-146.27;77.42;43355.75;5066311;28;20384;-70
2024/01/31 08:43:21;;;;;;;6.97;2.75;;;;;;;-146.27;77.58;43383.59;5065367;28;20058;-71
2024/01/31 08:45:46;;;;;;;6.57;3.17;;;;;;;-146.27;76.89;43351.75;5066212;28;20052;-71
2024/01/31 08:48:11;;;;;;;9.93;3.67;;;;;;;-146.27;77.13;43395.53;5069207;28;20024;-70
2024/01/31 08:50:37;;;;;;;6.55;3.80;;;;;;;-146.27;77.26;43359.72;5068487;28;20077;-69
2024/01/31 08:53:02;;;;;;;10.40;4.38;;;;;;;-146.27;77.08;43367.69;5068879;28;20508;-70
2024/01/31 08:55:27;;;;;;;9.07;4.28;;;;;;;-146.27;77.59;43409.44;5062839;28;20053;-69
2024/01/31 08:57:53;;;;;;;11.57;4.63;;;;;;;-146.27;78.19;43415.41;5069019;28;20063;-68
2024/01/31 09:00:18;;;;;;;8.95;4.68;;;;;;;-146.27;78.07;43385.59;5060238;28;20492;-70
2024/01/31 09:02:44;;;;;;;11.13;5.05;;;;;;;-146.27;77.78;43367.69;5067554;28;20034;-69
2024/01/31 09:05:10;;;;;;;16.40;5.85;;;;;;;-146.27;77.55;43361.72;5067620;28;20024;-70
2024/01/31 09:07:36;;;;;;;7.85;3.95;;;;;;;-146.27;77.72;43339.84;5069169;28;20039;-69
2024/01/31 09:10:01;;;;;;;10.20;4.75;;;;;;;-146.27;77.64;43331.88;5059907;28;20485;-69
2024/01/31 09:12:28;;;;;;;9.23;4.68;;;;;;;-146.27;78.56;43343.81;5058489;28;20560;-69
2024/01/31 09:14:54;;;;;;;10.90;5.50;;;;;;;-146.27;79.11;43423.38;5061025;28;20428;-69
2024/01/31 09:17:19;;;;;;;14.55;5.03;;;;;;;-146.27;78.71;43355.75;5069368;28;20026;-72
2024/01/31 09:19:45;;;;;;;12.77;5.38;;;;;;;-146.27;78.18;43296.06;5069163;28;20028;-70
2024/01/31 09:22:10;;;;;;;17.60;4.90;;;;;;;-146.27;78.13;43311.97;5071596;28;20081;-71
2024/01/31 09:24:35;;;;;;;16.25;5.72;;;;;;;-146.27;78.63;43351.75;5067078;28;20020;-69
2024/01/31 09:27:01;;;;;;;16.40;5.82;;;;;;;-146.27;79.23;43333.88;5064938;28;20032;-68
2024/01/31 09:29:26;;;;;;;10.70;4.88;;;;;;;-146.27;79.33;43365.69;5062710;28;20393;-69
2024/01/31 09:31:52;;;;;;;14.50;4.78;;;;;;;-146.27;78.84;43325.91;5060368;28;20017;-70
2024/01/31 09:34:17;;;;;;;12.95;5.07;;;;;;;-146.27;78.85;43327.91;5065347;28;20025;-70
2024/01/31 09:36:46;;;;;;;14.32;5.50;;;;;;;-146.27;79.97;43329.88;5064840;28;20916;-70
2024/01/31 09:39:12;;;;;;;11.35;4.70;;;;;;;-146.27;80.35;43308.00;5058279;28;20055;-70
2024/01/31 09:41:37;;;;;;;9.75;5.22;;;;;;;-146.27;80.64;43268.22;5062250;28;20436;-70
2024/01/31 09:44:03;;;;;;;12.77;4.50;;;;;;;-146.27;79.75;43214.50;5063239;28;20024;-69
2024/01/31 09:46:30;;;;;;;10.68;6.07;;;;;;;-146.27;79.28;43198.59;5062809;28;20091;-70
2024/01/31 09:48:55;;;;;;;14.15;5.25;;;;;;;-146.27;78.94;43210.53;5061059;28;20499;-70
2024/01/31 09:51:22;;;;;;;12.48;5.65;;;;;;;-146.27;79.72;43232.41;5059990;28;20096;-70
2024/01/31 09:53:51;;;;;;;17.63;6.70;;;;;;;-146.27;81.19;43306.00;5060535;28;20064;-70
2024/01/31 09:56:17;;;;;;;15.15;5.40;;;;;;;-146.27;81.24;43230.44;5061251;28;20028;-69
2024/01/31 09:58:43;;;;;;;15.23;6.22;;;;;;;-146.27;80.18;43144.91;5066066;28;20082;-70
2024/01/31 10:01:08;;;;;;;18.55;6.70;;;;;;;-146.27;82.41;43266.22;5064523;28;20409;-71
2024/01/31 10:03:34;;;;;;;14.30;6.40;;;;;;;-146.27;81.11;43240.38;5063826;28;20021;-70
2024/01/31 10:06:03;;;;;;;15.65;6.30;;;;;;;-146.27;80.13;43178.72;5062798;28;20404;-70
2024/01/31 10:08:29;;;;;;;16.42;5.88;;;;;;;-146.27;79.80;43184.69;5062261;28;20064;-71
2024/01/31 10:10:55;;;;;;;14.73;6.20;;;;;;;-146.27;80.35;43244.34;5075832;28;20408;-70
2024/01/31 10:13:20;;;;;;;10.75;6.28;;;;;;;-146.27;81.22;43232.41;5078219;28;20031;-70
2024/01/31 10:15:46;;;;;;;12.50;6.47;;;;;;;-146.27;80.18;43154.84;5062795;28;20017;-70
2024/01/31 10:18:12;;;;;;;12.15;6.68;;;;;;;-146.27;81.68;43256.28;5063985;28;20036;-70
2024/01/31 10:20:38;;;;;;;11.80;7.22;;;;;;;-146.27;81.44;43216.50;5057588;28;20029;-70
2024/01/31 10:23:03;;;;;;;13.35;6.68;;;;;;;-146.27;81.01;43148.88;5064036;28;20392;-70
2024/01/31 10:25:30;;;;;;;16.63;7.28;;;;;;;-146.27;80.65;43192.63;5060185;28;20025;-70
2024/01/31 10:27:55;;;;;;;14.90;6.95;;;;;;;-146.27;81.11;43200.59;5062580;28;20039;-69
2024/01/31 10:30:21;;;;;;;15.68;7.63;;;;;;;-146.27;80.66;43170.75;5061086;28;20044;-70
2024/01/31 10:32:47;;;;;;;14.65;7.15;;;;;;;-146.27;80.54;43180.69;5062602;28;20029;-70
2024/01/31 10:35:15;;;;;;;13.68;7.20;;;;;;;-146.27;80.54;43172.75;5059925;28;20063;-70
2024/01/31 10:37:40;;;;;;;18.60;8.35;;;;;;;-146.27;81.41;43194.63;5058916;28;20121;-69
2024/01/31 10:40:12;;;;;;;18.75;7.57;;;;;;;-146.27;81.81;43164.78;5064681;28;20139;-72
2024/01/31 10:42:38;;;;;;;16.20;8.38;;;;;;;-146.27;81.68;43182.69;5069434;28;20028;-70
2024/01/31 10:45:05;;;;;;;15.80;8.48;;;;;;;-146.27;81.12;43196.63;5059566;28;20512;-71
2024/01/31 10:47:31;;;;;;;20.98;9.55;;;;;;;-146.27;81.84;43224.47;5069650;28;20017;-71
2024/01/31 10:49:57;;;;;;;20.38;9.20;;;;;;;-146.27;80.12;43188.66;5070836;28;20024;-70
2024/01/31 10:52:28;;;;;;;18.58;8.95;;;;;;;-146.27;79.77;43204.56;5071214;28;20032;-71
2024/01/31 10:54:58;;;;;;;21.98;9.25;;;;;;;-146.27;80.32;43216.50;5070010;28;20025;-70
2024/01/31 10:57:25;;;;;;;20.95;10.02;;;;;;;-146.27;79.88;43232.41;5069882;28;20499;-70
2024/01/31 10:59:50;;;;;;;20.83;9.60;;;;;;;-146.27;79.04;43186.66;5069849;28;20031;-70
2024/01/31 11:02:17;;;;;;;18.50;8.77;;;;;;;-146.27;78.53;43308.00;5070949;28;20059;-72
2024/01/31 11:04:43;;;;;;;19.90;9.30;;;;;;;-146.27;78.35;43240.38;5066563;28;20048;-71
2024/01/31 11:07:21;;;;;;;15.05;8.93;;;;;;;-146.27;77.86;43294.09;5068192;28;20028;-71